Aviation Digital Data Service (ADDS)

Output produced by TAFs form (1630 UTC 23 February 2017)
found at http://aviationweather.gov/adds/tafs/
 
KROW 231140Z 2312/2412 20008KT P6SM SCT200 
     FM231600 23020G30KT P6SM SKC 
     FM231900 26028G38KT P6SM SKC 
     FM240100 26015G23KT P6SM SKC 
     FM240500 30012G18KT P6SM SKC